Time;durP1;ratioP1;P1;durP2;ratioP2;P2;SDS_P1;SDS_P2;PMS_P1;PMS_P2;Temp;Humidity;BMP_temperature;BMP_pressure;BME280_temperature;BME280_humidity;BME280_pressure;Samples;Min_cycle;Max_cycle;Signal;HPM_P1;HPM_P2
2022/08/03 00:01:19;;;;;;;1.23;1.23;;;;;;;;;;4973662;28;20436;-79
2022/08/03 00:03:45;;;;;;;1.00;1.00;;;;;;;;;;4973499;28;20446;-78
2022/08/03 00:06:11;;;;;;;1.03;1.03;;;;;;;;;;4974156;28;20428;-79
2022/08/03 00:08:37;;;;;;;1.53;1.53;;;;;;;;;;4974569;28;20430;-78
2022/08/03 00:11:03;;;;;;;1.80;1.80;;;;;;;;;;4969912;28;20442;-79
2022/08/03 00:13:29;;;;;;;1.40;1.40;;;;;;;;;;4986989;28;20442;-78
2022/08/03 00:15:55;;;;;;;1.63;1.30;;;;;;;;;;4974016;28;20441;-79
2022/08/03 00:18:21;;;;;;;1.70;1.60;;;;;;;;;;4973296;28;20482;-79
2022/08/03 00:20:47;;;;;;;1.20;1.20;;;;;;;;;;4973652;28;20521;-77
2022/08/03 00:23:13;;;;;;;1.40;1.40;;;;;;;;;;4973723;28;20441;-79
2022/08/03 00:25:39;;;;;;;1.50;1.50;;;;;;;;;;4958482;28;20438;-76
2022/08/03 00:28:05;;;;;;;1.40;1.40;;;;;;;;;;4981942;28;20450;-78
2022/08/03 00:30:32;;;;;;;3.40;1.30;;;;;;;;;;4965051;28;20533;-77
2022/08/03 00:32:58;;;;;;;1.10;1.10;;;;;;;;;;4972258;28;20433;-78
2022/08/03 00:35:24;;;;;;;1.40;1.40;;;;;;;;;;4973982;28;20504;-78
2022/08/03 00:37:51;;;;;;;1.40;1.40;;;;;;;;;;4973425;28;20504;-76
2022/08/03 00:40:17;;;;;;;6.93;2.10;;;;;;;;;;4973689;28;20441;-74
2022/08/03 00:42:52;;;;;;;1.57;1.47;;;;;;;;;;4972886;28;20918;-78
2022/08/03 00:45:18;;;;;;;3.37;1.57;;;;;;;;;;4973732;28;20500;-77
2022/08/03 00:47:45;;;;;;;1.73;1.50;;;;;;;;;;4973701;28;20440;-78
2022/08/03 00:50:11;;;;;;;1.50;1.50;;;;;;;;;;4973423;28;20438;-78
2022/08/03 00:52:37;;;;;;;1.17;1.17;;;;;;;;;;4973239;28;20521;-78
2022/08/03 00:55:03;;;;;;;1.23;1.23;;;;;;;;;;4973719;28;21009;-77
2022/08/03 00:57:30;;;;;;;1.10;1.10;;;;;;;;;;4973503;28;20422;-76
2022/08/03 00:59:56;;;;;;;4.30;1.70;;;;;;;;;;4972482;28;20826;-79
2022/08/03 01:02:22;;;;;;;1.70;1.27;;;;;;;;;;4973021;28;20790;-78
2022/08/03 01:04:47;;;;;;;1.00;1.00;;;;;;;;;;4973487;28;20919;-77
2022/08/03 01:07:20;;;;;;;1.97;1.10;;;;;;;;;;4973534;28;20441;-77
2022/08/03 01:09:51;;;;;;;1.50;1.20;;;;;;;;;;4973385;28;20500;-76
2022/08/03 01:12:22;;;;;;;2.10;1.37;;;;;;;;;;4971404;28;20466;-78
2022/08/03 01:14:53;;;;;;;1.50;1.40;;;;;;;;;;4973254;28;20469;-78
2022/08/03 01:17:36;;;;;;;1.27;1.27;;;;;;;;;;4973695;28;20508;-78
2022/08/03 01:20:05;;;;;;;7.40;1.37;;;;;;;;;;4973526;28;20540;-78
2022/08/03 01:22:39;;;;;;;1.77;1.67;;;;;;;;;;4973330;28;20418;-79
2022/08/03 01:25:09;;;;;;;1.40;1.30;;;;;;;;;;4973434;28;20524;-78
2022/08/03 01:27:54;;;;;;;2.70;1.57;;;;;;;;;;4973036;28;20465;-79
2022/08/03 01:30:20;;;;;;;5.17;1.30;;;;;;;;;;4973565;28;20432;-78
2022/08/03 01:32:59;;;;;;;1.33;1.33;;;;;;;;;;4973018;28;20493;-78
2022/08/03 01:35:27;;;;;;;1.70;1.60;;;;;;;;;;4972984;28;20806;-78
2022/08/03 01:37:56;;;;;;;1.10;1.00;;;;;;;;;;4973237;28;20433;-75
2022/08/03 01:40:24;;;;;;;1.33;1.23;;;;;;;;;;4973344;28;20441;-77
2022/08/03 01:42:50;;;;;;;1.50;1.50;;;;;;;;;;4972393;28;20433;-78
2022/08/03 01:45:17;;;;;;;7.40;1.30;;;;;;;;;;4972845;28;20499;-77
2022/08/03 01:47:45;;;;;;;3.27;1.10;;;;;;;;;;4973151;28;20476;-77
2022/08/03 01:50:11;;;;;;;1.43;1.37;;;;;;;;;;4973380;28;20425;-78
2022/08/03 01:52:40;;;;;;;1.53;1.40;;;;;;;;;;4972942;28;20445;-77
2022/08/03 01:55:07;;;;;;;1.37;1.37;;;;;;;;;;4972894;28;20480;-76
2022/08/03 01:57:34;;;;;;;8.20;1.73;;;;;;;;;;4972871;28;20534;-78
2022/08/03 02:00:00;;;;;;;1.00;0.97;;;;;;;;;;4973261;28;20485;-79
2022/08/03 02:02:27;;;;;;;6.13;1.50;;;;;;;;;;4975437;28;20809;-77
2022/08/03 02:04:55;;;;;;;1.50;1.50;;;;;;;;;;4976603;28;20434;-78
2022/08/03 02:07:22;;;;;;;1.17;1.17;;;;;;;;;;4976320;28;20939;-78
2022/08/03 02:09:50;;;;;;;1.60;1.60;;;;;;;;;;4976513;28;20842;-78
2022/08/03 02:12:16;;;;;;;4.40;1.33;;;;;;;;;;4975787;28;20442;-78
2022/08/03 02:14:43;;;;;;;1.27;1.27;;;;;;;;;;4976445;28;20453;-78
2022/08/03 02:17:10;;;;;;;1.43;1.33;;;;;;;;;;4976060;28;20469;-76
2022/08/03 02:19:36;;;;;;;1.87;1.77;;;;;;;;;;4975876;28;20491;-79
2022/08/03 02:22:04;;;;;;;2.90;2.77;;;;;;;;;;4975894;28;20441;-79
2022/08/03 02:24:31;;;;;;;1.70;1.60;;;;;;;;;;4976125;28;20440;-78
2022/08/03 02:26:57;;;;;;;1.53;1.53;;;;;;;;;;4976008;28;20529;-79
2022/08/03 02:29:25;;;;;;;4.83;1.50;;;;;;;;;;4975916;28;20433;-79
2022/08/03 02:31:51;;;;;;;1.97;1.97;;;;;;;;;;4976104;28;20422;-79
2022/08/03 02:34:20;;;;;;;1.53;1.53;;;;;;;;;;4975747;28;20871;-77
2022/08/03 02:36:49;;;;;;;1.60;1.60;;;;;;;;;;4991230;28;20433;-79
2022/08/03 02:39:16;;;;;;;6.27;1.30;;;;;;;;;;4975611;28;20565;-79
2022/08/03 02:41:57;;;;;;;1.53;1.53;;;;;;;;;;4975458;28;20418;-78
2022/08/03 02:44:24;;;;;;;1.23;1.23;;;;;;;;;;4975919;28;20500;-77
2022/08/03 02:46:54;;;;;;;1.47;1.37;;;;;;;;;;4976124;28;20421;-79
2022/08/03 02:49:20;;;;;;;1.60;1.60;;;;;;;;;;4975612;28;20488;-78
2022/08/03 02:51:46;;;;;;;1.33;1.33;;;;;;;;;;4975326;28;20438;-79
2022/08/03 02:54:14;;;;;;;1.27;1.27;;;;;;;;;;4975626;28;20453;-79
2022/08/03 02:56:41;;;;;;;1.43;1.33;;;;;;;;;;4975308;28;20450;-78
2022/08/03 02:59:07;;;;;;;1.03;1.00;;;;;;;;;;4975568;28;20485;-78
2022/08/03 03:01:33;;;;;;;1.00;1.00;;;;;;;;;;4975011;28;20438;-77
2022/08/03 03:03:59;;;;;;;2.13;2.03;;;;;;;;;;4975494;28;20780;-78
2022/08/03 03:06:26;;;;;;;2.13;1.37;;;;;;;;;;4975570;28;20520;-77
2022/08/03 03:08:53;;;;;;;1.60;1.50;;;;;;;;;;4975576;28;20469;-79
2022/08/03 03:11:20;;;;;;;1.37;1.37;;;;;;;;;;4974983;28;20434;-79
2022/08/03 03:13:48;;;;;;;1.57;1.47;;;;;;;;;;4973502;28;21102;-78
2022/08/03 03:16:15;;;;;;;1.23;1.23;;;;;;;;;;4975178;28;20495;-79
2022/08/03 03:18:42;;;;;;;2.13;1.83;;;;;;;;;;4975346;28;20492;-78
2022/08/03 03:21:09;;;;;;;1.57;1.47;;;;;;;;;;4975157;28;20525;-77
2022/08/03 03:23:40;;;;;;;1.87;1.87;;;;;;;;;;4977647;28;20860;-78
2022/08/03 03:26:06;;;;;;;2.37;1.80;;;;;;;;;;4989986;28;20434;-79
2022/08/03 03:28:32;;;;;;;1.53;1.53;;;;;;;;;;4974832;28;20462;-76
2022/08/03 03:30:59;;;;;;;4.63;1.60;;;;;;;;;;4975166;28;20794;-78
2022/08/03 03:33:25;;;;;;;1.20;1.20;;;;;;;;;;4974631;28;20441;-78
2022/08/03 03:35:51;;;;;;;1.67;1.60;;;;;;;;;;4974586;28;20437;-79
2022/08/03 03:38:18;;;;;;;1.33;1.33;;;;;;;;;;4974913;28;20469;-79
2022/08/03 03:40:44;;;;;;;1.67;1.57;;;;;;;;;;4974758;28;20548;-77
2022/08/03 03:43:10;;;;;;;1.53;1.20;;;;;;;;;;4973846;28;20422;-77
2022/08/03 03:45:37;;;;;;;1.30;1.30;;;;;;;;;;4975097;28;20418;-77
2022/08/03 03:48:03;;;;;;;1.40;1.30;;;;;;;;;;4974756;28;20478;-78
2022/08/03 03:50:30;;;;;;;1.67;1.40;;;;;;;;;;4974845;28;20973;-78
2022/08/03 03:52:56;;;;;;;1.50;1.40;;;;;;;;;;4973822;28;20430;-75
2022/08/03 03:55:22;;;;;;;1.33;1.33;;;;;;;;;;4974593;28;20540;-73
2022/08/03 03:57:48;;;;;;;2.50;2.30;;;;;;;;;;4974268;28;20430;-72
2022/08/03 04:00:14;;;;;;;1.50;1.50;;;;;;;;;;4974469;28;20521;-73
2022/08/03 04:02:40;;;;;;;2.13;1.90;;;;;;;;;;4974006;28;20501;-73
2022/08/03 04:11:00;;;;;;;3.03;2.73;;;;;;;;;;4974157;28;20425;-73
2022/08/03 04:13:29;;;;;;;2.63;2.53;;;;;;;;;;4972916;28;20434;-73
2022/08/03 04:15:56;;;;;;;1.70;1.70;;;;;;;;;;4973561;28;20961;-73
2022/08/03 04:18:23;;;;;;;3.90;1.60;;;;;;;;;;4973670;28;20465;-73
2022/08/03 04:20:49;;;;;;;1.40;1.40;;;;;;;;;;4973499;28;20449;-73
2022/08/03 04:23:17;;;;;;;1.60;1.60;;;;;;;;;;4973486;28;20422;-72
2022/08/03 04:25:44;;;;;;;2.57;2.20;;;;;;;;;;4973084;28;20438;-72
2022/08/03 04:28:11;;;;;;;2.60;2.50;;;;;;;;;;4973143;28;20474;-72
2022/08/03 04:30:38;;;;;;;2.17;1.80;;;;;;;;;;4973546;28;20449;-72
2022/08/03 04:33:04;;;;;;;1.77;1.77;;;;;;;;;;4973619;28;20488;-72
2022/08/03 04:35:32;;;;;;;1.50;1.50;;;;;;;;;;4972925;28;20911;-73
2022/08/03 04:38:01;;;;;;;2.67;2.30;;;;;;;;;;4973595;28;20421;-72
2022/08/03 04:40:33;;;;;;;5.17;1.73;;;;;;;;;;4973181;28;20536;-74
2022/08/03 04:42:59;;;;;;;4.30;1.60;;;;;;;;;;4973060;28;20801;-74
2022/08/03 04:45:27;;;;;;;1.87;1.60;;;;;;;;;;4973449;28;20442;-73
2022/08/03 04:47:53;;;;;;;1.43;1.40;;;;;;;;;;4972930;28;20795;-72
2022/08/03 04:50:20;;;;;;;1.40;1.40;;;;;;;;;;4973775;28;20434;-75
2022/08/03 04:52:46;;;;;;;1.70;1.63;;;;;;;;;;4972595;28;20497;-73
2022/08/03 04:55:11;;;;;;;3.37;3.17;;;;;;;;;;4988468;28;20505;-73
2022/08/03 04:57:37;;;;;;;3.03;2.30;;;;;;;;;;4972447;28;20941;-74
2022/08/03 05:00:05;;;;;;;2.60;2.60;;;;;;;;;;4973520;28;20900;-74
2022/08/03 05:02:31;;;;;;;3.10;3.00;;;;;;;;;;4972369;28;20437;-73
2022/08/03 05:04:57;;;;;;;3.97;3.03;;;;;;;;;;4973685;28;20473;-73
2022/08/03 05:07:23;;;;;;;5.60;2.63;;;;;;;;;;4972889;28;20430;-73
2022/08/03 05:09:49;;;;;;;3.17;2.03;;;;;;;;;;4973381;28;20911;-74
2022/08/03 05:12:15;;;;;;;4.43;1.83;;;;;;;;;;4972218;28;20430;-75
2022/08/03 05:14:41;;;;;;;1.80;1.80;;;;;;;;;;4972991;28;20186;-72
2022/08/03 05:17:08;;;;;;;4.00;2.00;;;;;;;;;;4969392;28;20438;-72
2022/08/03 05:19:34;;;;;;;2.77;2.57;;;;;;;;;;4972174;28;20765;-74
2022/08/03 05:22:00;;;;;;;2.53;2.40;;;;;;;;;;4972044;28;20415;-72
2022/08/03 05:24:26;;;;;;;2.37;2.37;;;;;;;;;;4973502;28;20449;-80
2022/08/03 05:26:52;;;;;;;3.60;2.20;;;;;;;;;;4973435;28;20774;-73
2022/08/03 05:29:18;;;;;;;3.03;2.90;;;;;;;;;;4973707;28;20429;-84
2022/08/03 05:31:44;;;;;;;2.20;2.10;;;;;;;;;;4973403;28;20418;-80
2022/08/03 05:34:10;;;;;;;2.27;2.10;;;;;;;;;;4973453;28;20433;-81
2022/08/03 05:36:36;;;;;;;1.60;1.60;;;;;;;;;;4975558;28;20426;-79
2022/08/03 05:39:02;;;;;;;2.43;2.43;;;;;;;;;;4977209;28;20838;-74
2022/08/03 05:41:28;;;;;;;1.50;1.50;;;;;;;;;;4976702;28;20425;-75
2022/08/03 05:43:54;;;;;;;1.93;1.83;;;;;;;;;;4976990;28;20827;-76
2022/08/03 05:46:21;;;;;;;2.00;1.97;;;;;;;;;;4976887;28;20453;-76
2022/08/03 05:48:48;;;;;;;2.10;2.10;;;;;;;;;;4977037;28;20920;-77
2022/08/03 05:51:14;;;;;;;2.00;2.00;;;;;;;;;;4976489;28;20500;-79
2022/08/03 05:53:43;;;;;;;10.27;2.17;;;;;;;;;;4976758;28;20830;-72
2022/08/03 05:56:09;;;;;;;2.73;2.63;;;;;;;;;;4972758;28;20569;-73
2022/08/03 05:58:35;;;;;;;1.63;1.63;;;;;;;;;;4991590;28;20481;-73
2022/08/03 06:01:01;;;;;;;3.00;1.97;;;;;;;;;;4976105;28;20418;-73
2022/08/03 06:03:27;;;;;;;2.10;1.90;;;;;;;;;;4974902;28;20809;-72
2022/08/03 06:05:57;;;;;;;1.80;1.70;;;;;;;;;;4974009;28;20492;-72
2022/08/03 06:08:23;;;;;;;3.23;2.20;;;;;;;;;;4976522;28;20183;-72
2022/08/03 06:10:49;;;;;;;2.60;1.80;;;;;;;;;;4974502;28;20434;-72
2022/08/03 06:13:15;;;;;;;4.60;1.70;;;;;;;;;;4976073;28;20453;-72
2022/08/03 06:15:42;;;;;;;3.30;2.30;;;;;;;;;;4975512;28;20465;-73
2022/08/03 06:18:08;;;;;;;2.07;1.90;;;;;;;;;;4976352;28;20918;-73
2022/08/03 06:20:34;;;;;;;2.10;2.00;;;;;;;;;;4975383;28;20452;-73
2022/08/03 06:23:00;;;;;;;6.97;2.10;;;;;;;;;;4975661;28;20198;-73
2022/08/03 06:25:26;;;;;;;1.70;1.60;;;;;;;;;;4975746;28;20926;-73
2022/08/03 06:27:52;;;;;;;10.03;2.30;;;;;;;;;;4975818;28;20182;-73
2022/08/03 06:30:18;;;;;;;3.13;2.93;;;;;;;;;;4976030;28;20433;-72
2022/08/03 06:32:44;;;;;;;3.40;1.77;;;;;;;;;;4974719;28;20193;-75
2022/08/03 06:35:10;;;;;;;3.87;2.30;;;;;;;;;;4975901;28;20513;-73
2022/08/03 06:37:46;;;;;;;3.50;2.00;;;;;;;;;;4975146;28;20513;-74
2022/08/03 06:40:13;;;;;;;4.60;2.60;;;;;;;;;;4976127;28;21085;-73
2022/08/03 06:42:39;;;;;;;2.20;2.07;;;;;;;;;;4975023;28;20422;-73
2022/08/03 06:45:07;;;;;;;5.77;4.40;;;;;;;;;;4975986;28;20438;-73
2022/08/03 06:47:33;;;;;;;2.23;1.83;;;;;;;;;;4974739;28;20915;-73
2022/08/03 06:49:59;;;;;;;11.43;2.97;;;;;;;;;;4974681;28;20437;-73
2022/08/03 06:52:25;;;;;;;8.13;2.10;;;;;;;;;;4974696;28;20454;-73
2022/08/03 06:54:51;;;;;;;2.27;2.10;;;;;;;;;;4975097;28;20480;-73
2022/08/03 06:57:17;;;;;;;3.90;2.10;;;;;;;;;;4972145;28;20440;-74
2022/08/03 06:59:43;;;;;;;8.90;2.37;;;;;;;;;;4989702;28;20725;-73
2022/08/03 07:02:10;;;;;;;7.73;2.40;;;;;;;;;;4973840;28;20454;-75
2022/08/03 07:04:36;;;;;;;2.00;1.90;;;;;;;;;;4975214;28;20501;-74
2022/08/03 07:07:02;;;;;;;2.00;1.90;;;;;;;;;;4975331;28;20625;-73
2022/08/03 07:09:28;;;;;;;4.60;2.17;;;;;;;;;;4975063;28;20449;-72
2022/08/03 07:11:55;;;;;;;5.93;1.97;;;;;;;;;;4974504;28;20430;-73
2022/08/03 07:14:21;;;;;;;3.83;2.30;;;;;;;;;;4975123;28;20430;-74
2022/08/03 07:16:48;;;;;;;11.77;2.43;;;;;;;;;;4975479;28;20461;-73
2022/08/03 07:19:14;;;;;;;5.97;1.77;;;;;;;;;;4974857;28;20229;-73
2022/08/03 07:21:40;;;;;;;2.50;2.30;;;;;;;;;;4974330;28;20432;-72
2022/08/03 07:24:06;;;;;;;2.70;2.50;;;;;;;;;;4974050;28;20503;-73
2022/08/03 07:26:32;;;;;;;3.03;2.57;;;;;;;;;;4974929;28;20441;-73
2022/08/03 07:29:00;;;;;;;8.53;2.00;;;;;;;;;;4990262;28;20438;-73
2022/08/03 07:31:26;;;;;;;7.00;2.03;;;;;;;;;;4975056;28;20438;-73
2022/08/03 07:33:52;;;;;;;4.70;2.63;;;;;;;;;;4974762;28;20430;-73
2022/08/03 07:36:18;;;;;;;1.90;1.80;;;;;;;;;;4975218;28;20472;-73
2022/08/03 07:38:44;;;;;;;2.27;2.27;;;;;;;;;;4975089;28;20481;-74
2022/08/03 07:41:10;;;;;;;4.93;2.10;;;;;;;;;;4974396;28;20454;-74
2022/08/03 07:43:36;;;;;;;2.23;2.13;;;;;;;;;;4974810;28;20412;-73
2022/08/03 07:46:02;;;;;;;2.03;2.00;;;;;;;;;;4974611;28;20438;-73
2022/08/03 07:48:28;;;;;;;2.07;2.07;;;;;;;;;;4975204;28;20182;-73
2022/08/03 07:50:53;;;;;;;2.67;2.47;;;;;;;;;;4975008;28;20213;-73
2022/08/03 07:53:19;;;;;;;1.90;1.90;;;;;;;;;;4989444;28;20422;-73
2022/08/03 07:55:45;;;;;;;3.23;2.33;;;;;;;;;;4973787;28;20470;-74
2022/08/03 07:58:14;;;;;;;2.67;2.57;;;;;;;;;;4974062;28;20429;-73
2022/08/03 08:00:41;;;;;;;3.97;2.63;;;;;;;;;;4970729;28;20464;-74
2022/08/03 08:03:07;;;;;;;1.40;1.40;;;;;;;;;;4987563;28;20442;-76
2022/08/03 08:05:33;;;;;;;3.53;2.37;;;;;;;;;;4973935;28;21042;-73
2022/08/03 08:08:00;;;;;;;2.70;2.40;;;;;;;;;;4973786;28;20444;-73
2022/08/03 08:10:27;;;;;;;8.27;2.20;;;;;;;;;;4972856;28;20662;-75
2022/08/03 08:12:53;;;;;;;7.13;1.90;;;;;;;;;;4973857;28;20444;-73
2022/08/03 08:15:19;;;;;;;3.40;2.30;;;;;;;;;;4973609;28;20414;-73
2022/08/03 08:17:45;;;;;;;6.40;2.90;;;;;;;;;;4974170;28;20445;-77
2022/08/03 08:20:14;;;;;;;3.50;2.50;;;;;;;;;;4973670;28;20481;-73
2022/08/03 08:22:41;;;;;;;11.73;2.30;;;;;;;;;;4973354;28;20434;-74
2022/08/03 08:25:07;;;;;;;3.43;2.37;;;;;;;;;;4973420;28;20797;-74
2022/08/03 08:27:33;;;;;;;3.57;2.37;;;;;;;;;;4973898;28;20449;-74
2022/08/03 08:29:59;;;;;;;2.33;2.17;;;;;;;;;;4973730;28;20430;-73
2022/08/03 08:32:25;;;;;;;1.57;1.57;;;;;;;;;;4988438;28;20797;-73
2022/08/03 08:34:52;;;;;;;7.43;1.97;;;;;;;;;;4972230;28;20763;-73
2022/08/03 08:37:17;;;;;;;8.70;2.60;;;;;;;;;;4973620;28;20442;-74
2022/08/03 08:39:43;;;;;;;5.73;2.70;;;;;;;;;;4973477;28;20481;-73
2022/08/03 08:42:09;;;;;;;4.00;2.77;;;;;;;;;;4973069;28;20181;-73
2022/08/03 08:44:35;;;;;;;3.20;2.87;;;;;;;;;;4973705;28;20648;-73
2022/08/03 08:47:03;;;;;;;4.20;2.80;;;;;;;;;;4988686;28;20477;-74
2022/08/03 08:49:29;;;;;;;3.53;2.67;;;;;;;;;;4973533;28;20476;-73
2022/08/03 08:51:56;;;;;;;2.03;1.93;;;;;;;;;;4972701;28;20923;-73
2022/08/03 08:54:22;;;;;;;3.40;2.43;;;;;;;;;;4973632;28;20481;-72
2022/08/03 08:56:51;;;;;;;4.77;2.23;;;;;;;;;;4973056;28;20428;-73
2022/08/03 08:59:17;;;;;;;5.70;2.40;;;;;;;;;;4972991;28;20482;-73
2022/08/03 09:01:43;;;;;;;2.70;2.53;;;;;;;;;;4972624;28;20915;-74
2022/08/03 09:04:09;;;;;;;2.63;2.53;;;;;;;;;;4973803;28;20418;-74
2022/08/03 09:06:35;;;;;;;2.80;2.20;;;;;;;;;;4985954;28;20430;-77
2022/08/03 09:09:01;;;;;;;1.77;1.77;;;;;;;;;;4954392;29;20430;-74
2022/08/03 09:11:27;;;;;;;6.40;2.33;;;;;;;;;;4956840;28;20410;-73
2022/08/03 09:13:53;;;;;;;2.17;2.00;;;;;;;;;;4958361;28;20422;-73
2022/08/03 09:16:20;;;;;;;8.13;2.57;;;;;;;;;;4976929;28;20434;-74
2022/08/03 09:18:50;;;;;;;3.93;3.60;;;;;;;;;;4976574;28;20480;-73
2022/08/03 09:21:17;;;;;;;3.13;2.30;;;;;;;;;;4975752;28;20444;-73
2022/08/03 09:23:45;;;;;;;2.10;1.57;;;;;;;;;;4977126;28;20418;-73
2022/08/03 09:26:11;;;;;;;1.60;1.60;;;;;;;;;;4976924;28;20433;-74
2022/08/03 09:28:37;;;;;;;3.63;2.50;;;;;;;;;;4977601;28;20417;-73
2022/08/03 09:31:03;;;;;;;6.10;1.80;;;;;;;;;;4977530;28;20429;-73
2022/08/03 09:33:29;;;;;;;2.63;1.70;;;;;;;;;;4977206;28;20863;-73
2022/08/03 09:35:55;;;;;;;1.63;1.63;;;;;;;;;;4976039;28;20473;-73
2022/08/03 09:38:26;;;;;;;2.00;1.90;;;;;;;;;;4977235;28;20941;-73
2022/08/03 09:40:52;;;;;;;2.30;2.20;;;;;;;;;;4977000;28;20457;-73
2022/08/03 09:43:19;;;;;;;1.83;1.83;;;;;;;;;;4976972;28;20425;-73
2022/08/03 09:45:44;;;;;;;2.20;2.10;;;;;;;;;;4977339;28;20781;-72
2022/08/03 09:48:23;;;;;;;1.90;1.90;;;;;;;;;;4977207;28;20417;-73
2022/08/03 09:50:49;;;;;;;2.07;1.97;;;;;;;;;;4977240;28;20210;-73
2022/08/03 09:53:16;;;;;;;14.73;1.90;;;;;;;;;;4976713;28;20429;-73
2022/08/03 09:55:56;;;;;;;4.33;2.50;;;;;;;;;;4976526;28;20477;-73
2022/08/03 09:58:22;;;;;;;1.57;1.53;;;;;;;;;;4977012;28;20449;-73
2022/08/03 10:00:59;;;;;;;1.90;1.80;;;;;;;;;;4976917;28;20529;-73
2022/08/03 10:03:25;;;;;;;1.83;1.83;;;;;;;;;;4976560;28;20413;-73
2022/08/03 10:05:52;;;;;;;6.53;1.97;;;;;;;;;;4976903;28;20934;-73
2022/08/03 10:08:19;;;;;;;1.53;1.43;;;;;;;;;;4991919;28;20469;-73
2022/08/03 10:10:46;;;;;;;2.20;2.10;;;;;;;;;;4991403;28;20469;-73
2022/08/03 10:13:16;;;;;;;2.20;1.80;;;;;;;;;;4976331;28;20798;-73
2022/08/03 10:15:42;;;;;;;1.93;1.83;;;;;;;;;;4976794;28;20426;-73
2022/08/03 10:18:08;;;;;;;1.97;1.97;;;;;;;;;;4991604;28;20430;-74
2022/08/03 10:20:37;;;;;;;1.83;1.73;;;;;;;;;;4976733;28;20923;-73
2022/08/03 10:23:04;;;;;;;5.70;2.53;;;;;;;;;;4990610;28;20421;-73
2022/08/03 10:25:31;;;;;;;2.87;2.60;;;;;;;;;;4991111;28;20957;-73
2022/08/03 10:27:57;;;;;;;8.90;1.90;;;;;;;;;;4976434;28;20923;-73
2022/08/03 10:30:24;;;;;;;2.10;2.03;;;;;;;;;;4976375;28;20476;-73
2022/08/03 10:33:01;;;;;;;4.23;3.37;;;;;;;;;;4976139;28;20509;-72
2022/08/03 10:35:29;;;;;;;2.20;2.00;;;;;;;;;;4976359;28;20417;-73
2022/08/03 10:37:59;;;;;;;5.37;3.80;;;;;;;;;;4976275;28;20422;-73
2022/08/03 10:40:31;;;;;;;3.60;2.00;;;;;;;;;;4990727;28;20903;-73
2022/08/03 10:43:01;;;;;;;2.20;2.10;;;;;;;;;;4976005;28;20418;-73
2022/08/03 10:45:27;;;;;;;1.80;1.80;;;;;;;;;;4976205;28;20477;-73
2022/08/03 10:47:55;;;;;;;1.50;1.50;;;;;;;;;;4991193;28;20432;-73
2022/08/03 10:50:23;;;;;;;2.70;1.87;;;;;;;;;;4976156;28;20890;-74
2022/08/03 10:53:00;;;;;;;3.90;1.87;;;;;;;;;;4975796;28;20425;-73
2022/08/03 10:58:38;;;;;;;1.70;1.70;;;;;;;;;;4975914;28;20417;-74
2022/08/03 11:01:12;;;;;;;1.97;1.97;;;;;;;;;;4975826;28;20521;-73
2022/08/03 11:03:56;;;;;;;9.20;1.77;;;;;;;;;;4975424;28;20484;-73
2022/08/03 11:06:24;;;;;;;1.97;1.97;;;;;;;;;;4975890;28;20797;-73
2022/08/03 11:09:10;;;;;;;1.87;1.77;;;;;;;;;;4975852;28;20418;-73
2022/08/03 11:11:40;;;;;;;1.60;1.50;;;;;;;;;;4974879;28;20454;-74
2022/08/03 11:14:07;;;;;;;1.83;1.73;;;;;;;;;;4975744;28;20476;-73
2022/08/03 11:16:35;;;;;;;3.03;1.40;;;;;;;;;;4975586;28;20461;-73
2022/08/03 11:19:02;;;;;;;2.23;2.03;;;;;;;;;;4975563;28;20837;-73
2022/08/03 11:21:47;;;;;;;1.33;1.33;;;;;;;;;;4975520;28;20414;-73
2022/08/03 11:24:31;;;;;;;2.63;1.80;;;;;;;;;;4975483;28;20425;-73
2022/08/03 11:27:16;;;;;;;2.47;1.87;;;;;;;;;;4975126;28;20490;-73
2022/08/03 11:30:00;;;;;;;1.70;1.70;;;;;;;;;;4975291;28;20906;-72
2022/08/03 11:32:49;;;;;;;5.03;2.07;;;;;;;;;;4975023;28;21020;-73
2022/08/03 11:35:17;;;;;;;3.03;2.10;;;;;;;;;;4975011;28;20771;-73
2022/08/03 11:37:59;;;;;;;1.60;1.50;;;;;;;;;;4975234;28;20420;-73
2022/08/03 11:40:37;;;;;;;1.80;1.77;;;;;;;;;;4974579;28;20488;-73
2022/08/03 11:43:04;;;;;;;1.50;1.50;;;;;;;;;;4974847;28;20414;-73
2022/08/03 11:45:30;;;;;;;1.60;1.60;;;;;;;;;;4975120;28;20422;-73
2022/08/03 11:47:57;;;;;;;1.67;1.67;;;;;;;;;;4975055;28;20422;-73
2022/08/03 11:50:23;;;;;;;1.63;1.63;;;;;;;;;;4990014;28;20962;-73
2022/08/03 11:52:50;;;;;;;1.43;1.40;;;;;;;;;;4974645;28;20422;-73
2022/08/03 11:55:23;;;;;;;6.77;3.10;;;;;;;;;;5069881;28;20927;-72
2022/08/03 11:57:49;;;;;;;1.13;1.13;;;;;;;;;;5070206;28;20501;-72
2022/08/03 12:00:19;;;;;;;1.90;1.90;;;;;;;;;;5069755;28;20425;-73
2022/08/03 12:02:55;;;;;;;2.50;2.40;;;;;;;;;;5068521;28;20471;-72
2022/08/03 12:05:21;;;;;;;1.73;1.73;;;;;;;;;;5070055;28;20421;-72
2022/08/03 12:07:47;;;;;;;3.23;1.90;;;;;;;;;;5070080;28;20426;-73
2022/08/03 12:10:14;;;;;;;2.67;2.33;;;;;;;;;;5069397;28;20418;-73
2022/08/03 12:12:41;;;;;;;1.93;1.90;;;;;;;;;;5068287;28;20425;-72
2022/08/03 12:15:08;;;;;;;1.53;1.53;;;;;;;;;;5069900;28;20511;-73
2022/08/03 12:17:33;;;;;;;2.13;2.10;;;;;;;;;;5057530;28;20430;-72
2022/08/03 12:20:00;;;;;;;1.73;1.63;;;;;;;;;;5048805;28;20496;-72
2022/08/03 12:22:36;;;;;;;3.03;2.13;;;;;;;;;;5048314;28;20437;-73
2022/08/03 12:25:03;;;;;;;1.80;1.70;;;;;;;;;;5048942;28;20450;-72
2022/08/03 12:27:29;;;;;;;1.60;1.60;;;;;;;;;;5048916;28;20977;-73
2022/08/03 12:29:57;;;;;;;1.67;1.67;;;;;;;;;;5049465;28;20422;-73
2022/08/03 12:32:24;;;;;;;2.90;2.03;;;;;;;;;;5049176;28;20411;-73
2022/08/03 12:34:50;;;;;;;2.57;2.40;;;;;;;;;;5049399;28;20500;-72
2022/08/03 12:37:20;;;;;;;4.83;1.60;;;;;;;;;;5049560;28;20918;-74
2022/08/03 12:39:50;;;;;;;6.50;1.90;;;;;;;;;;5049250;28;20568;-72
2022/08/03 12:42:16;;;;;;;1.87;1.77;;;;;;;;;;5048920;28;20493;-72
2022/08/03 12:44:44;;;;;;;1.50;1.40;;;;;;;;;;5049326;28;20419;-73
2022/08/03 12:47:10;;;;;;;1.40;1.40;;;;;;;;;;5049341;28;20489;-72
2022/08/03 12:49:46;;;;;;;2.00;1.90;;;;;;;;;;5048040;28;20430;-73
2022/08/03 12:52:13;;;;;;;1.27;1.27;;;;;;;;;;5048718;28;20414;-72
2022/08/03 12:54:38;;;;;;;2.27;1.90;;;;;;;;;;5048482;28;20973;-73
2022/08/03 12:57:06;;;;;;;1.40;1.40;;;;;;;;;;5049020;28;20413;-73
2022/08/03 12:59:34;;;;;;;1.40;1.30;;;;;;;;;;5047882;28;20467;-72
2022/08/03 13:02:00;;;;;;;1.47;1.40;;;;;;;;;;5048616;28;20930;-72
2022/08/03 13:04:31;;;;;;;2.40;1.27;;;;;;;;;;5047469;28;20422;-72
2022/08/03 13:06:58;;;;;;;1.73;1.73;;;;;;;;;;5033933;28;20474;-72
2022/08/03 13:09:25;;;;;;;1.03;1.03;;;;;;;;;;5035340;28;20423;-72
2022/08/03 13:12:10;;;;;;;3.33;1.33;;;;;;;;;;5035145;28;20481;-73
2022/08/03 13:14:36;;;;;;;1.40;1.40;;;;;;;;;;5035381;28;20478;-72
2022/08/03 13:17:03;;;;;;;1.40;1.30;;;;;;;;;;5035376;28;20427;-73
2022/08/03 13:19:29;;;;;;;6.53;1.60;;;;;;;;;;5035606;28;20418;-73
2022/08/03 13:21:55;;;;;;;1.10;1.10;;;;;;;;;;5035091;28;20810;-73
2022/08/03 13:24:20;;;;;;;1.40;1.40;;;;;;;;;;5034937;28;20541;-73
2022/08/03 13:26:46;;;;;;;1.00;1.00;;;;;;;;;;5035110;28;20259;-73
2022/08/03 13:29:12;;;;;;;0.83;0.83;;;;;;;;;;5035183;28;20423;-73
2022/08/03 13:31:38;;;;;;;1.00;1.00;;;;;;;;;;5033573;28;20188;-72
2022/08/03 13:34:04;;;;;;;1.70;1.10;;;;;;;;;;5035140;28;20293;-73
2022/08/03 13:36:30;;;;;;;1.47;1.27;;;;;;;;;;5035117;28;20423;-73
2022/08/03 13:38:56;;;;;;;0.90;0.90;;;;;;;;;;5034958;28;20419;-73
2022/08/03 13:41:22;;;;;;;0.63;0.63;;;;;;;;;;5034547;28;20187;-73
2022/08/03 13:43:48;;;;;;;1.00;1.00;;;;;;;;;;5034589;28;20462;-72
2022/08/03 13:46:14;;;;;;;1.37;1.37;;;;;;;;;;5034893;28;20204;-72
2022/08/03 13:48:40;;;;;;;11.57;1.10;;;;;;;;;;5034965;28;20180;-72
2022/08/03 13:51:06;;;;;;;1.37;1.27;;;;;;;;;;5034762;28;20188;-74
2022/08/03 13:53:32;;;;;;;1.57;1.47;;;;;;;;;;5034169;28;20537;-73
2022/08/03 13:55:58;;;;;;;1.73;1.00;;;;;;;;;;5034488;28;20422;-72
2022/08/03 13:58:24;;;;;;;1.43;1.10;;;;;;;;;;5034692;28;20419;-73
2022/08/03 14:00:50;;;;;;;1.40;0.97;;;;;;;;;;5034511;28;20271;-72
2022/08/03 14:03:15;;;;;;;5.20;1.13;;;;;;;;;;5034109;28;20184;-72
2022/08/03 14:05:42;;;;;;;0.90;0.90;;;;;;;;;;5033300;28;20443;-73
2022/08/03 14:08:08;;;;;;;1.00;1.00;;;;;;;;;;5039150;28;20428;-75
2022/08/03 14:10:36;;;;;;;1.13;1.13;;;;;;;;;;5053995;28;20434;-74
2022/08/03 14:13:02;;;;;;;0.77;0.77;;;;;;;;;;5054667;28;20415;-74
2022/08/03 14:15:28;;;;;;;1.23;0.70;;;;;;;;;;5054321;28;20496;-72
2022/08/03 14:17:54;;;;;;;0.97;0.90;;;;;;;;;;5060311;28;20822;-73
2022/08/03 14:20:20;;;;;;;1.00;1.00;;;;;;;;;;5054182;28;20427;-74
2022/08/03 14:22:46;;;;;;;0.80;0.80;;;;;;;;;;5053335;28;20433;-74
2022/08/03 14:25:12;;;;;;;1.10;1.00;;;;;;;;;;5062265;28;20528;-73
2022/08/03 14:27:38;;;;;;;0.70;0.70;;;;;;;;;;5074085;28;20418;-74
2022/08/03 14:30:04;;;;;;;1.43;1.43;;;;;;;;;;5060335;28;20483;-74
2022/08/03 14:32:30;;;;;;;0.90;0.90;;;;;;;;;;5053703;28;20204;-73
2022/08/03 14:34:56;;;;;;;2.10;1.20;;;;;;;;;;5054868;28;20506;-74
2022/08/03 14:37:22;;;;;;;0.70;0.70;;;;;;;;;;5073694;28;20422;-75
2022/08/03 14:39:48;;;;;;;2.93;0.73;;;;;;;;;;5072150;28;20179;-73
2022/08/03 14:42:14;;;;;;;5.70;0.80;;;;;;;;;;5073226;28;20497;-73
2022/08/03 14:44:40;;;;;;;1.00;1.00;;;;;;;;;;5072464;28;20933;-73
2022/08/03 14:47:06;;;;;;;1.90;0.90;;;;;;;;;;5073599;28;20781;-74
2022/08/03 14:49:32;;;;;;;0.97;0.97;;;;;;;;;;5073554;28;20954;-73
2022/08/03 14:51:59;;;;;;;1.20;1.20;;;;;;;;;;5064197;28;20422;-73
2022/08/03 14:54:25;;;;;;;1.23;1.23;;;;;;;;;;5052787;28;20521;-74